createdAt,value
2018-05-12T00:01:19.253Z,11.47
2018-05-12T00:03:46.562Z,10.53
2018-05-12T00:06:12.881Z,15.00
2018-05-12T00:08:39.964Z,11.13
2018-05-12T00:11:07.009Z,10.83
2018-05-12T00:13:34.044Z,10.73
2018-05-12T00:16:00.337Z,9.60
2018-05-12T00:18:26.648Z,9.93
2018-05-12T00:20:52.957Z,9.03
2018-05-12T00:23:19.997Z,10.93
2018-05-12T00:25:47.045Z,9.50
2018-05-12T00:28:14.106Z,10.03
2018-05-12T00:30:41.152Z,8.53
2018-05-12T00:33:08.194Z,8.43
2018-05-12T00:35:36.357Z,7.77
2018-05-12T00:38:03.410Z,9.33
2018-05-12T00:40:30.480Z,8.60
2018-05-12T00:42:56.836Z,7.77
2018-05-12T00:45:24.121Z,8.27
2018-05-12T00:47:50.446Z,8.30
2018-05-12T00:50:20.669Z,8.00
2018-05-12T00:52:47.184Z,9.50
2018-05-12T00:55:13.522Z,8.07
2018-05-12T00:57:39.842Z,9.80
2018-05-12T01:00:07.210Z,9.60
2018-05-12T01:02:33.553Z,10.67
2018-05-12T01:05:01.390Z,9.37
2018-05-12T01:07:27.721Z,8.90
2018-05-12T01:09:54.053Z,9.60
2018-05-12T01:12:20.389Z,9.70
2018-05-12T01:14:46.751Z,8.97
2018-05-12T01:17:13.110Z,7.87
2018-05-12T01:19:41.193Z,7.10
2018-05-12T01:22:07.518Z,6.40
2018-05-12T01:24:33.837Z,6.10
2018-05-12T01:27:00.905Z,6.23
2018-05-12T01:29:27.246Z,6.67
2018-05-12T01:31:53.573Z,6.97
2018-05-12T01:34:19.906Z,5.93
2018-05-12T01:36:46.220Z,5.80
2018-05-12T01:39:12.545Z,5.10
2018-05-12T01:41:39.626Z,4.47
2018-05-12T01:44:06.830Z,4.50
2018-05-12T01:46:33.896Z,4.83
2018-05-12T01:49:00.224Z,4.83
2018-05-12T01:51:26.548Z,4.60
2018-05-12T01:53:53.604Z,4.67
2018-05-12T01:56:19.945Z,4.50
2018-05-12T01:58:46.268Z,4.57
2018-05-12T02:01:12.631Z,4.57
2018-05-12T02:03:39.050Z,4.40
2018-05-12T02:06:05.343Z,4.60
2018-05-12T02:08:31.660Z,5.13
2018-05-12T02:10:58.741Z,4.73
2018-05-12T02:13:25.065Z,5.73
2018-05-12T02:15:51.469Z,6.03
2018-05-12T02:18:17.792Z,6.90
2018-05-12T02:20:44.134Z,6.27
2018-05-12T02:23:10.526Z,6.20
2018-05-12T02:25:36.866Z,6.07
2018-05-12T02:28:03.229Z,6.13
2018-05-12T02:30:29.591Z,5.37
2018-05-12T02:32:56.646Z,4.70
2018-05-12T02:35:22.969Z,4.80
2018-05-12T02:37:49.321Z,5.00
2018-05-12T02:40:15.689Z,4.60
2018-05-12T02:42:42.027Z,4.40
2018-05-12T02:45:08.358Z,4.13
2018-05-12T02:47:34.689Z,4.20
2018-05-12T02:50:02.041Z,3.30
2018-05-12T02:52:28.369Z,3.57
2018-05-12T02:54:54.702Z,3.63
2018-05-12T02:57:21.033Z,4.90
2018-05-12T02:59:47.365Z,3.73
2018-05-12T03:02:13.701Z,4.40
2018-05-12T03:04:40.016Z,3.77
2018-05-12T03:07:06.349Z,3.57
2018-05-12T03:09:32.670Z,3.23
2018-05-12T03:11:58.997Z,3.63
2018-05-12T03:14:25.332Z,4.43
2018-05-12T03:16:51.649Z,4.33
2018-05-12T03:19:18.087Z,3.70
2018-05-12T03:21:44.416Z,3.60
2018-05-12T03:24:11.496Z,4.00
2018-05-12T03:26:37.852Z,4.00
2018-05-12T03:29:04.905Z,4.23
2018-05-12T03:31:31.233Z,4.40
2018-05-12T03:33:57.556Z,4.83
2018-05-12T03:36:24.626Z,4.27
2018-05-12T03:38:50.940Z,3.47
2018-05-12T03:41:18.017Z,3.57
2018-05-12T03:43:44.394Z,3.23
2018-05-12T03:46:11.532Z,3.90
2018-05-12T03:48:37.857Z,3.00
2018-05-12T03:51:04.190Z,3.20
2018-05-12T03:53:30.508Z,3.40
2018-05-12T03:55:56.844Z,3.00
2018-05-12T03:58:23.181Z,3.23
2018-05-12T04:00:49.518Z,2.90
2018-05-12T04:03:15.844Z,2.80
2018-05-12T04:05:54.349Z,3.30
2018-05-12T04:08:32.988Z,3.83
2018-05-12T04:11:12.466Z,3.63
2018-05-12T04:13:38.802Z,4.30
2018-05-12T04:16:05.149Z,4.20
2018-05-12T04:18:31.473Z,4.43
2018-05-12T04:20:57.824Z,3.67
2018-05-12T04:23:25.177Z,3.57
2018-05-12T04:25:51.518Z,3.63
2018-05-12T04:28:17.844Z,2.90
2018-05-12T04:30:44.176Z,2.87
2018-05-12T04:33:10.500Z,3.27
2018-05-12T04:35:36.829Z,2.97
2018-05-12T04:38:03.162Z,3.27
2018-05-12T04:40:29.481Z,3.67
2018-05-12T04:42:55.856Z,3.10
2018-05-12T04:45:22.256Z,3.20
2018-05-12T04:47:48.584Z,3.03
2018-05-12T04:50:14.913Z,2.87
2018-05-12T04:52:41.232Z,2.73
2018-05-12T04:55:07.563Z,2.80
2018-05-12T04:57:33.886Z,3.03
2018-05-12T05:00:00.210Z,3.20
2018-05-12T05:02:27.521Z,2.93
2018-05-12T05:04:53.857Z,2.93
2018-05-12T05:07:20.176Z,3.20
2018-05-12T05:09:46.508Z,3.30
2018-05-12T05:12:12.837Z,3.37
2018-05-12T05:14:39.158Z,3.00
2018-05-12T05:17:05.487Z,3.27
2018-05-12T05:19:31.833Z,3.40
2018-05-12T05:21:58.164Z,3.27
2018-05-12T05:24:24.501Z,2.90
2018-05-12T05:26:50.842Z,2.80
2018-05-12T05:29:17.977Z,2.50
2018-05-12T05:31:44.316Z,2.20
2018-05-12T05:34:10.670Z,2.87
2018-05-12T05:36:37.009Z,2.80
2018-05-12T05:39:03.388Z,2.67
2018-05-12T05:41:29.735Z,2.40
2018-05-12T05:43:57.058Z,3.00
2018-05-12T05:46:23.393Z,3.17
2018-05-12T05:48:49.744Z,2.87
2018-05-12T05:51:17.061Z,3.13
2018-05-12T05:53:43.393Z,2.67
2018-05-12T05:56:09.743Z,2.83
2018-05-12T05:58:36.091Z,2.60
2018-05-12T06:01:02.462Z,2.67
2018-05-12T06:03:28.796Z,2.47
2018-05-12T06:05:55.118Z,2.90
2018-05-12T06:08:21.445Z,3.17
2018-05-12T06:10:48.532Z,2.50
2018-05-12T06:13:15.897Z,3.10
2018-05-12T06:15:43.241Z,2.80
2018-05-12T06:18:10.659Z,2.37
2018-05-12T06:20:36.973Z,2.67
2018-05-12T06:23:03.300Z,2.50
2018-05-12T06:25:29.621Z,2.10
2018-05-12T06:27:55.986Z,2.67
2018-05-12T06:30:22.402Z,3.20
2018-05-12T06:32:49.477Z,2.83
2018-05-12T06:35:15.796Z,3.17
2018-05-12T06:37:42.865Z,2.77
2018-05-12T06:40:09.184Z,3.10
2018-05-12T06:42:35.501Z,3.03
2018-05-12T06:45:02.589Z,2.70
2018-05-12T06:47:28.953Z,2.83
2018-05-12T06:49:55.269Z,2.67
2018-05-12T06:52:21.606Z,2.97
2018-05-12T06:54:47.933Z,3.40
2018-05-12T06:57:14.260Z,2.80
2018-05-12T06:59:40.600Z,3.03
2018-05-12T07:02:06.913Z,2.80
2018-05-12T07:04:33.968Z,2.40
2018-05-12T07:07:00.285Z,2.37
2018-05-12T07:09:26.596Z,2.43
2018-05-12T07:11:53.937Z,2.30
2018-05-12T07:14:20.253Z,2.50
2018-05-12T07:16:47.364Z,2.47
2018-05-12T07:19:13.690Z,2.17
2018-05-12T07:21:40.253Z,3.43
2018-05-12T07:24:06.572Z,2.17
2018-05-12T07:26:32.925Z,2.20
2018-05-12T07:28:59.996Z,2.63
2018-05-12T07:31:26.381Z,3.53
2018-05-12T07:33:52.713Z,3.33
2018-05-12T07:36:19.031Z,3.30
2018-05-12T07:38:45.366Z,3.90
2018-05-12T07:41:11.685Z,3.70
2018-05-12T07:43:38.018Z,3.80
2018-05-12T07:46:04.345Z,4.00
2018-05-12T07:48:30.670Z,3.90
2018-05-12T07:50:58.788Z,4.17
2018-05-12T07:53:26.753Z,4.90
2018-05-12T07:55:53.081Z,4.37
2018-05-12T07:58:19.388Z,4.50
2018-05-12T08:00:45.717Z,5.03
2018-05-12T08:03:12.064Z,5.87
2018-05-12T08:05:38.368Z,6.13
2018-05-12T08:08:04.700Z,4.37
2018-05-12T08:10:31.133Z,5.47
2018-05-12T08:12:57.464Z,5.63
2018-05-12T08:15:23.794Z,6.30
2018-05-12T08:17:50.919Z,6.30
2018-05-12T08:20:17.265Z,5.73
2018-05-12T08:22:43.601Z,5.17
2018-05-12T08:25:09.938Z,5.83
2018-05-12T08:27:36.277Z,7.77
2018-05-12T08:30:02.634Z,7.10
2018-05-12T08:32:29.972Z,7.67
2018-05-12T08:34:56.293Z,8.67
2018-05-12T08:37:23.601Z,9.70
2018-05-12T08:39:49.937Z,8.63
2018-05-12T08:42:16.264Z,8.00
2018-05-12T08:44:42.589Z,8.40
2018-05-12T08:47:08.933Z,10.10
2018-05-12T08:49:35.244Z,9.87
2018-05-12T08:52:02.321Z,8.20
2018-05-12T08:54:28.684Z,8.93
2018-05-12T08:56:55.024Z,7.30
2018-05-12T08:59:21.393Z,6.90
2018-05-12T09:01:47.716Z,6.00
2018-05-12T09:04:14.772Z,6.27
2018-05-12T09:06:41.093Z,6.60
2018-05-12T09:09:08.177Z,7.30
2018-05-12T09:11:34.512Z,6.60
2018-05-12T09:14:00.829Z,6.37
2018-05-12T09:16:27.148Z,6.53
2018-05-12T09:18:53.488Z,6.70
2018-05-12T09:21:20.850Z,8.03
2018-05-12T09:23:48.217Z,6.87
2018-05-12T09:26:14.550Z,8.43
2018-05-12T09:28:40.903Z,8.53
2018-05-12T09:31:07.232Z,8.97
2018-05-12T09:33:33.546Z,7.87
2018-05-12T09:35:59.905Z,8.20
2018-05-12T09:38:26.222Z,8.60
2018-05-12T09:40:52.554Z,8.00
2018-05-12T09:43:19.878Z,11.03
2018-05-12T09:45:46.221Z,9.87
2018-05-12T09:48:13.533Z,9.40
2018-05-12T09:50:40.593Z,9.50
2018-05-12T09:53:06.909Z,9.20
2018-05-12T09:55:33.963Z,9.33
2018-05-12T09:58:00.306Z,9.23
2018-05-12T10:00:26.669Z,9.77
2018-05-12T10:02:52.993Z,10.80
2018-05-12T10:05:19.321Z,10.10
2018-05-12T10:07:45.644Z,9.57
2018-05-12T10:10:11.984Z,9.60
2018-05-12T10:12:38.310Z,10.10
2018-05-12T10:15:04.659Z,9.97
2018-05-12T10:17:30.977Z,9.93
2018-05-12T10:19:57.293Z,9.23
2018-05-12T10:22:23.636Z,9.27
2018-05-12T10:24:49.982Z,9.40
2018-05-12T10:27:16.304Z,8.73
2018-05-12T10:29:43.613Z,8.67
2018-05-12T10:32:11.675Z,7.67
2018-05-12T10:34:38.753Z,9.40
2018-05-12T10:37:05.101Z,8.20
2018-05-12T10:39:31.420Z,9.30
2018-05-12T10:41:57.762Z,10.33
2018-05-12T10:44:24.080Z,9.43
2018-05-12T10:46:50.388Z,10.27
2018-05-12T10:49:16.701Z,9.07
2018-05-12T10:51:43.753Z,9.50
2018-05-12T10:54:10.816Z,8.30
2018-05-12T10:56:37.931Z,7.57
2018-05-12T10:59:04.276Z,8.40
2018-05-12T11:01:31.337Z,8.60
2018-05-12T11:03:58.432Z,7.23
2018-05-12T11:06:24.779Z,9.50
2018-05-12T11:08:51.102Z,10.30
2018-05-12T11:11:17.456Z,7.67
2018-05-12T11:13:43.820Z,7.67
2018-05-12T11:16:10.246Z,8.40
2018-05-12T11:18:36.509Z,6.67
2018-05-12T11:21:03.866Z,7.80
2018-05-12T11:23:30.205Z,7.87
2018-05-12T11:25:56.529Z,7.63
2018-05-12T11:28:22.836Z,7.10
2018-05-12T11:30:49.157Z,6.17
2018-05-12T11:33:15.480Z,7.20
2018-05-12T11:35:42.535Z,6.70
2018-05-12T11:38:08.862Z,5.93
2018-05-12T11:40:35.931Z,5.80
2018-05-12T11:43:03.285Z,4.90
2018-05-12T11:45:30.632Z,4.93
2018-05-12T11:47:56.956Z,5.00
2018-05-12T11:50:23.281Z,5.23
2018-05-12T11:52:50.331Z,5.23
2018-05-12T11:55:16.661Z,6.00
2018-05-12T11:57:43.744Z,5.10
2018-05-12T12:00:10.080Z,4.00
2018-05-12T12:02:36.448Z,5.10
2018-05-12T12:05:02.839Z,3.77
2018-05-12T12:07:30.165Z,4.47
2018-05-12T12:09:56.493Z,5.47
2018-05-12T12:12:22.813Z,5.90
2018-05-12T12:14:49.891Z,5.83
2018-05-12T12:17:16.257Z,5.87
2018-05-12T12:19:42.573Z,6.40
2018-05-12T12:22:08.930Z,5.40
2018-05-12T12:24:35.265Z,5.80
2018-05-12T12:27:01.570Z,5.43
2018-05-12T12:29:28.874Z,6.33
2018-05-12T12:31:55.198Z,5.60
2018-05-12T12:34:22.314Z,6.93
2018-05-12T12:36:48.629Z,6.40
2018-05-12T12:39:14.973Z,5.33
2018-05-12T12:41:41.333Z,5.67
2018-05-12T12:44:08.385Z,5.30
2018-05-12T12:46:35.436Z,4.80
2018-05-12T12:49:03.661Z,5.47
2018-05-12T12:51:30.014Z,5.40
2018-05-12T12:53:56.325Z,5.17
2018-05-12T12:56:22.637Z,4.83
2018-05-12T12:58:48.942Z,5.60
2018-05-12T13:01:15.265Z,5.03
2018-05-12T13:03:43.350Z,3.53
2018-05-12T13:06:09.669Z,3.90
2018-05-12T13:08:37.332Z,5.83
2018-05-12T13:11:10.597Z,4.27
2018-05-12T13:13:36.949Z,6.00
2018-05-12T13:16:03.388Z,5.90
2018-05-12T13:18:29.659Z,5.00
2018-05-12T13:20:55.988Z,5.00
2018-05-12T13:23:22.459Z,3.70
2018-05-12T13:25:49.772Z,3.73
2018-05-12T13:28:16.120Z,4.43
2018-05-12T13:30:42.444Z,3.83
2018-05-12T13:33:09.509Z,4.30
2018-05-12T13:35:35.821Z,2.60
2018-05-12T13:38:02.140Z,4.50
2018-05-12T13:40:28.496Z,4.47
2018-05-12T13:42:54.861Z,3.93
2018-05-12T13:45:22.005Z,6.00
2018-05-12T13:47:49.070Z,4.83
2018-05-12T13:50:15.415Z,5.00
2018-05-12T13:52:41.742Z,4.13
2018-05-12T13:55:08.061Z,3.80
2018-05-12T13:57:34.385Z,3.47
2018-05-12T14:00:01.706Z,4.60
2018-05-12T14:02:28.029Z,4.67
2018-05-12T14:04:54.346Z,4.10
2018-05-12T14:07:20.712Z,4.70
2018-05-12T14:09:47.021Z,5.23
2018-05-12T14:12:13.336Z,4.50
2018-05-12T14:14:39.662Z,5.57
2018-05-12T14:17:05.981Z,5.63
2018-05-12T14:19:32.301Z,5.73
2018-05-12T14:21:58.609Z,6.20
2018-05-12T14:24:25.665Z,6.30
2018-05-12T14:26:51.991Z,5.47
2018-05-12T14:29:19.063Z,5.60
2018-05-12T14:31:45.389Z,5.50
2018-05-12T14:34:11.697Z,5.83
2018-05-12T14:36:38.775Z,6.00
2018-05-12T14:39:06.117Z,4.40
2018-05-12T14:41:32.448Z,4.80
2018-05-12T14:43:58.800Z,5.10
2018-05-12T14:46:25.143Z,4.63
2018-05-12T14:48:52.504Z,5.93
2018-05-12T14:51:18.820Z,5.20
2018-05-12T14:53:45.161Z,4.83
2018-05-12T14:56:11.509Z,5.57
2018-05-12T14:58:37.900Z,5.37
2018-05-12T15:01:04.241Z,5.00
2018-05-12T15:03:31.572Z,4.13
2018-05-12T15:05:58.905Z,4.70
2018-05-12T15:08:25.981Z,4.03
2018-05-12T15:10:52.328Z,4.50
2018-05-12T15:13:18.657Z,4.23
2018-05-12T15:15:46.012Z,3.93
2018-05-12T15:18:12.325Z,4.63
2018-05-12T15:20:38.648Z,4.93
2018-05-12T15:23:05.986Z,3.50
2018-05-12T15:25:33.057Z,4.70
2018-05-12T15:27:59.380Z,4.17
2018-05-12T15:30:25.713Z,3.80
2018-05-12T15:32:52.029Z,4.50
2018-05-12T15:35:19.096Z,4.00
2018-05-12T15:37:45.438Z,3.63
2018-05-12T15:40:14.561Z,3.87
2018-05-12T15:42:40.883Z,3.40
2018-05-12T15:45:07.236Z,4.20
2018-05-12T15:47:33.566Z,4.27
2018-05-12T15:50:00.729Z,4.20
2018-05-12T15:52:28.084Z,4.13
2018-05-12T15:54:56.131Z,3.90
2018-05-12T15:57:24.002Z,4.07
2018-05-12T15:59:50.301Z,4.33
2018-05-12T16:02:16.651Z,3.67
2018-05-12T16:04:42.967Z,3.50
2018-05-12T16:07:09.288Z,4.30
2018-05-12T16:09:36.597Z,3.63
2018-05-12T16:12:03.661Z,3.90
2018-05-12T16:14:30.710Z,3.47
2018-05-12T16:16:57.755Z,4.00
2018-05-12T16:19:25.854Z,3.13
2018-05-12T16:21:52.199Z,3.07
2018-05-12T16:24:18.513Z,3.87
2018-05-12T16:26:44.828Z,3.77
2018-05-12T16:29:11.149Z,3.83
2018-05-12T16:31:38.304Z,3.40
2018-05-12T16:34:04.545Z,3.90
2018-05-12T16:36:30.876Z,3.77
2018-05-12T16:38:57.196Z,3.80
2018-05-12T16:41:23.536Z,3.30
2018-05-12T16:43:49.875Z,4.63
2018-05-12T16:46:16.189Z,4.00
2018-05-12T16:48:42.496Z,4.13
2018-05-12T16:51:10.113Z,3.93
2018-05-12T16:53:36.413Z,4.13
2018-05-12T16:56:02.732Z,4.53
2018-05-12T16:58:29.797Z,3.90
2018-05-12T17:00:56.173Z,4.40
2018-05-12T17:03:22.587Z,3.70
2018-05-12T17:05:48.909Z,4.43
2018-05-12T17:08:15.245Z,4.40
2018-05-12T17:10:41.569Z,4.17
2018-05-12T17:13:07.974Z,3.60
2018-05-12T17:15:34.237Z,4.30
2018-05-12T17:18:01.554Z,4.23
2018-05-12T17:20:28.613Z,4.33
2018-05-12T17:22:54.932Z,4.90
2018-05-12T17:25:22.044Z,6.10
2018-05-12T17:27:50.442Z,5.80
2018-05-12T17:30:17.601Z,5.60
2018-05-12T17:32:44.673Z,6.07
2018-05-12T17:35:12.002Z,6.60
2018-05-12T17:37:39.073Z,5.83
2018-05-12T17:40:05.416Z,5.97
2018-05-12T17:42:31.752Z,5.53
2018-05-12T17:44:58.065Z,5.10
2018-05-12T17:47:24.376Z,5.37
2018-05-12T17:49:51.444Z,5.40
2018-05-12T17:52:17.753Z,5.70
2018-05-12T17:54:44.802Z,5.63
2018-05-12T17:57:11.879Z,5.70
2018-05-12T17:59:38.196Z,6.33
2018-05-12T18:02:04.524Z,7.27
2018-05-12T18:04:30.860Z,11.13
2018-05-12T18:06:57.177Z,8.27
2018-05-12T18:09:24.226Z,8.27
2018-05-12T18:11:50.637Z,7.07
2018-05-12T18:14:24.795Z,8.13
2018-05-12T18:16:51.139Z,8.67
2018-05-12T18:19:17.443Z,8.00
2018-05-12T18:21:43.777Z,7.60
2018-05-12T18:24:10.273Z,8.40
2018-05-12T18:26:36.588Z,11.00
2018-05-12T18:29:02.921Z,10.20
2018-05-12T18:31:29.248Z,8.40
2018-05-12T18:33:55.573Z,8.53
2018-05-12T18:36:23.016Z,9.07
2018-05-12T18:38:49.346Z,9.30
2018-05-12T18:41:15.660Z,9.90
2018-05-12T18:43:41.987Z,9.40
2018-05-12T18:46:08.292Z,10.27
2018-05-12T18:48:35.368Z,9.10
2018-05-12T18:51:01.713Z,10.30
2018-05-12T18:53:28.226Z,8.30
2018-05-12T18:55:54.379Z,7.97
2018-05-12T18:58:20.702Z,7.70
2018-05-12T19:00:47.035Z,7.50
2018-05-12T19:03:13.365Z,7.50
2018-05-12T19:05:39.681Z,7.10
2018-05-12T19:08:06.005Z,6.27
2018-05-12T19:10:32.333Z,5.73
2018-05-12T19:12:58.656Z,6.57
2018-05-12T19:15:25.068Z,7.20
2018-05-12T19:17:51.313Z,6.60
2018-05-12T19:20:17.657Z,6.37
2018-05-12T19:22:43.997Z,6.93
2018-05-12T19:25:10.313Z,6.70
2018-05-12T19:27:36.645Z,7.27
2018-05-12T19:30:03.005Z,7.40
2018-05-12T19:32:30.390Z,7.17
2018-05-12T19:34:56.734Z,7.40
2018-05-12T19:37:23.821Z,7.10
2018-05-12T19:39:50.158Z,7.37
2018-05-12T19:42:16.491Z,8.50
2018-05-12T19:44:42.826Z,8.03
2018-05-12T19:47:09.165Z,9.00
2018-05-12T19:49:35.546Z,9.70
2018-05-12T19:52:02.835Z,9.33
2018-05-12T19:54:29.152Z,11.30
2018-05-12T19:56:55.563Z,10.07
2018-05-12T19:59:21.879Z,9.83
2018-05-12T20:01:48.961Z,9.90
2018-05-12T20:04:15.277Z,11.50
2018-05-12T20:06:41.614Z,12.20
2018-05-12T20:09:07.936Z,11.00
2018-05-12T20:11:35.000Z,12.90
2018-05-12T20:14:02.341Z,11.03
2018-05-12T20:16:28.659Z,10.80
2018-05-12T20:18:55.734Z,11.27
2018-05-12T20:21:22.113Z,11.13
2018-05-12T20:23:48.444Z,11.90
2018-05-12T20:26:14.773Z,12.10
2018-05-12T20:28:41.109Z,12.30
2018-05-12T20:31:07.492Z,12.80
2018-05-12T20:33:34.526Z,11.80
2018-05-12T20:36:00.837Z,11.40
2018-05-12T20:38:27.926Z,11.53
2018-05-12T20:40:55.277Z,12.63
2018-05-12T20:43:21.612Z,11.50
2018-05-12T20:45:47.935Z,31.30
2018-05-12T20:48:14.275Z,12.20
2018-05-12T20:50:40.593Z,50.37
2018-05-12T20:53:06.925Z,15.00
2018-05-12T20:55:33.257Z,22.93
2018-05-12T20:57:59.589Z,14.30
2018-05-12T21:00:25.917Z,11.10
2018-05-12T21:02:52.229Z,10.37
2018-05-12T21:05:18.544Z,11.30
2018-05-12T21:07:45.609Z,11.60
2018-05-12T21:10:11.933Z,12.33
2018-05-12T21:12:38.981Z,12.10
2018-05-12T21:15:06.042Z,12.73
2018-05-12T21:17:32.368Z,12.20
2018-05-12T21:19:58.698Z,11.90
2018-05-12T21:22:25.041Z,12.10
2018-05-12T21:24:51.369Z,12.30
2018-05-12T21:27:17.705Z,11.63
2018-05-12T21:29:44.020Z,10.87
2018-05-12T21:32:10.345Z,12.20
2018-05-12T21:34:37.396Z,13.03
2018-05-12T21:37:03.721Z,11.43
2018-05-12T21:39:30.800Z,12.43
2018-05-12T21:41:58.156Z,11.90
2018-05-12T21:44:24.493Z,10.60
2018-05-12T21:46:50.834Z,12.20
2018-05-12T21:49:18.149Z,10.77
2018-05-12T21:51:44.469Z,10.80
2018-05-12T21:54:11.521Z,10.40
2018-05-12T21:56:37.849Z,9.90
2018-05-12T21:59:05.091Z,10.63
2018-05-12T22:01:31.309Z,9.40
2018-05-12T22:03:58.392Z,10.30
2018-05-12T22:06:24.717Z,9.20
2018-05-12T22:08:51.049Z,8.93
2018-05-12T22:11:17.372Z,9.10
2018-05-12T22:13:43.703Z,9.10
2018-05-12T22:16:10.028Z,9.77
2018-05-12T22:18:37.118Z,8.63
2018-05-12T22:21:03.449Z,8.50
2018-05-12T22:23:29.780Z,8.10
2018-05-12T22:25:57.111Z,8.27
2018-05-12T22:28:24.458Z,7.47
2018-05-12T22:30:50.871Z,7.57
2018-05-12T22:33:17.145Z,8.33
2018-05-12T22:35:43.467Z,8.80
2018-05-12T22:38:09.793Z,8.90
2018-05-12T22:40:36.127Z,8.83
2018-05-12T22:43:02.458Z,8.27
2018-05-12T22:45:28.784Z,8.40
2018-05-12T22:47:55.105Z,7.67
2018-05-12T22:50:21.434Z,7.90
2018-05-12T22:52:47.768Z,7.90
2018-05-12T22:55:15.117Z,7.17
2018-05-12T22:57:41.445Z,7.60
2018-05-12T23:00:07.788Z,7.07
2018-05-12T23:02:34.105Z,7.30
2018-05-12T23:05:00.465Z,6.97
2018-05-12T23:07:26.804Z,7.50
2018-05-12T23:09:54.185Z,7.83
2018-05-12T23:12:20.509Z,7.37
2018-05-12T23:14:46.833Z,8.90
2018-05-12T23:17:13.913Z,7.10
2018-05-12T23:19:40.981Z,7.80
2018-05-12T23:22:07.340Z,7.30
2018-05-12T23:24:33.657Z,7.70
2018-05-12T23:27:00.016Z,7.23
2018-05-12T23:29:26.338Z,8.03
2018-05-12T23:31:52.679Z,8.80
2018-05-12T23:34:19.041Z,9.00
2018-05-12T23:36:45.397Z,9.13
2018-05-12T23:39:12.481Z,9.60
2018-05-12T23:41:38.805Z,8.90
2018-05-12T23:44:05.146Z,9.50
2018-05-12T23:46:32.483Z,9.70
2018-05-12T23:48:58.797Z,9.30
2018-05-12T23:51:25.383Z,9.77
2018-05-12T23:53:51.588Z,9.07
2018-05-12T23:56:17.897Z,8.90
2018-05-12T23:58:44.213Z,8.83
